Time;durP1;ratioP1;P1;durP2;ratioP2;P2;SDS_P1;SDS_P2;PMS_P1;PMS_P2;Temp;Humidity;BMP_temperature;BMP_pressure;BME280_temperature;BME280_humidity;BME280_pressure;Samples;Min_cycle;Max_cycle;Signal;HPM_P1;HPM_P2
2023/01/11 00:01:05;;;;;;;10.60;6.18;;;8.00;99.90;;;;;;6257911;22;20011;-93
2023/01/11 00:03:33;;;;;;;7.95;6.10;;;8.10;99.90;;;;;;6257648;22;20025;-93
2023/01/11 00:06:00;;;;;;;9.30;6.40;;;8.10;99.90;;;;;;6257993;22;20428;-93
2023/01/11 00:08:27;;;;;;;13.10;7.22;;;8.10;99.90;;;;;;6257844;22;20007;-91
2023/01/11 00:10:54;;;;;;;11.02;7.10;;;8.10;99.90;;;;;;6257975;22;20035;-91
2023/01/11 00:13:22;;;;;;;9.82;6.18;;;8.10;99.90;;;;;;6257712;22;20007;-91
2023/01/11 00:15:48;;;;;;;21.27;9.85;;;8.10;99.90;;;;;;6257848;22;20109;-91
2023/01/11 00:18:18;;;;;;;9.45;6.15;;;8.20;99.90;;;;;;6257731;22;19999;-90
2023/01/11 00:20:44;;;;;;;8.07;6.05;;;8.20;99.90;;;;;;6257749;22;20011;-89
2023/01/11 00:23:14;;;;;;;19.05;6.32;;;8.30;99.90;;;;;;6257349;22;20053;-91
2023/01/11 00:25:41;;;;;;;13.27;6.00;;;8.30;99.90;;;;;;6257782;22;20007;-90
2023/01/11 00:28:09;;;;;;;12.55;5.90;;;8.40;99.90;;;;;;6257713;22;20007;-91
2023/01/11 00:30:36;;;;;;;7.22;6.10;;;8.40;99.90;;;;;;6257757;22;20049;-89
2023/01/11 00:33:03;;;;;;;16.20;6.40;;;8.40;99.90;;;;;;6257676;22;20063;-90
2023/01/11 00:35:31;;;;;;;9.57;6.40;;;8.40;99.90;;;;;;6257385;22;20011;-92
2023/01/11 00:37:58;;;;;;;10.48;6.38;;;8.40;99.90;;;;;;6257468;22;20003;-92
2023/01/11 00:40:25;;;;;;;11.35;6.90;;;8.40;99.90;;;;;;6258503;22;20420;-90
2023/01/11 00:48:22;;;;;;;13.25;7.80;;;8.40;99.90;;;;;;6283817;22;20011;-91
2023/01/11 00:50:54;;;;;;;9.48;6.00;;;8.40;99.90;;;;;;6258393;22;20013;-92
2023/01/11 00:53:21;;;;;;;7.88;6.00;;;8.40;99.90;;;;;;6258289;22;20078;-92
2023/01/11 00:55:48;;;;;;;9.05;5.95;;;8.40;99.90;;;;;;6259405;22;20134;-92
2023/01/11 00:58:15;;;;;;;8.18;5.80;;;8.40;99.90;;;;;;6260177;22;20007;-92
2023/01/11 01:00:42;;;;;;;6.38;5.90;;;8.40;99.90;;;;;;6260701;22;20011;-91
2023/01/11 01:03:09;;;;;;;10.65;5.60;;;8.40;99.90;;;;;;6258960;22;20019;-90
2023/01/11 01:05:37;;;;;;;6.40;5.72;;;8.40;99.90;;;;;;6257105;22;20073;-91
2023/01/11 01:08:05;;;;;;;8.40;6.63;;;8.40;99.90;;;;;;6257401;22;20007;-91
2023/01/11 01:10:31;;;;;;;7.00;5.95;;;8.40;99.90;;;;;;6257305;22;20011;-91
2023/01/11 01:15:43;;;;;;;10.48;6.60;;;8.40;99.90;;;;;;6282624;22;20485;-91
2023/01/11 01:18:10;;;;;;;11.00;6.20;;;8.50;99.90;;;;;;6257190;22;20003;-91
2023/01/11 01:20:40;;;;;;;11.35;5.80;;;8.50;99.90;;;;;;6256957;22;20004;-90
2023/01/11 01:23:07;;;;;;;6.05;5.40;;;8.50;99.90;;;;;;6257156;22;20011;-90
2023/01/11 01:25:36;;;;;;;7.82;6.20;;;8.50;99.90;;;;;;6256968;22;20428;-94
2023/01/11 01:28:03;;;;;;;7.13;6.40;;;8.50;99.90;;;;;;6256858;22;20030;-91
2023/01/11 01:30:30;;;;;;;6.90;6.40;;;8.50;99.90;;;;;;6257168;22;20019;-91
2023/01/11 01:32:56;;;;;;;7.30;6.80;;;8.40;99.90;;;;;;6257007;22;20014;-91
2023/01/11 01:35:23;;;;;;;10.95;6.80;;;8.40;99.90;;;;;;6256763;22;20106;-93
2023/01/11 01:37:50;;;;;;;7.15;6.50;;;8.30;99.90;;;;;;6256893;22;20011;-90
2023/01/11 01:40:17;;;;;;;8.15;6.47;;;8.30;99.90;;;;;;6257004;22;20006;-90
2023/01/11 01:42:43;;;;;;;7.32;6.53;;;8.30;99.90;;;;;;6256814;22;20011;-91
2023/01/11 01:45:26;;;;;;;13.55;7.22;;;8.30;99.90;;;;;;6256864;22;20367;-92
2023/01/11 01:47:59;;;;;;;7.55;6.85;;;8.30;99.90;;;;;;6257028;22;20074;-92
2023/01/11 01:50:40;;;;;;;7.20;6.60;;;8.30;99.90;;;;;;6256945;22;20023;-90
2023/01/11 01:53:19;;;;;;;7.60;7.00;;;8.30;99.90;;;;;;6257075;22;20004;-93
2023/01/11 01:55:55;;;;;;;8.20;7.05;;;8.30;99.90;;;;;;6257005;22;20011;-92
2023/01/11 01:58:34;;;;;;;8.93;7.00;;;8.20;99.90;;;;;;6250825;22;20004;-90
2023/01/11 02:01:45;;;;;;;7.68;6.90;;;8.20;99.90;;;;;;6225979;22;20057;-94
2023/01/11 02:03:49;;;;;;;8.70;6.80;;;8.10;99.90;;;;;;6250505;22;20016;-91
2023/01/11 02:06:17;;;;;;;9.02;6.63;;;8.20;99.90;;;;;;6251474;22;20012;-91
2023/01/11 02:08:49;;;;;;;9.90;6.30;;;8.20;99.90;;;;;;6226543;22;20012;-91
2023/01/11 02:11:29;;;;;;;7.00;6.30;;;8.20;99.90;;;;;;6230033;22;20051;-90
2023/01/11 02:14:05;;;;;;;7.13;6.20;;;8.20;99.90;;;;;;6225625;22;20469;-91
2023/01/11 02:16:32;;;;;;;7.00;6.30;;;8.20;99.90;;;;;;6225659;22;20015;-91
2023/01/11 02:19:00;;;;;;;7.60;6.15;;;8.30;99.90;;;;;;6225537;22;20007;-90
2023/01/11 02:22:05;;;;;;;11.70;8.18;;;8.30;99.90;;;;;;6225441;22;20376;-91
2023/01/11 02:24:40;;;;;;;;;;;8.20;99.90;;;;;;6226006;22;20008;-91
2023/01/11 02:27:23;;;;;;;10.30;6.55;;;8.20;99.90;;;;;;6250512;22;20383;-92
2023/01/11 02:29:59;;;;;;;9.60;7.40;;;8.20;99.90;;;;;;6247242;22;20039;-93
2023/01/11 02:32:45;;;;;;;7.00;6.55;;;8.20;99.90;;;;;;6282102;22;20007;-91
2023/01/11 02:35:37;;;;;;;7.38;6.70;;;8.10;99.90;;;;;;6256313;22;20007;-93
2023/01/11 02:38:20;;;;;;;10.43;6.93;;;8.10;99.90;;;;;;6182141;22;20015;-91
2023/01/11 02:41:02;;;;;;;7.55;6.90;;;8.20;99.90;;;;;;6257232;22;20482;-89
2023/01/11 02:47:17;;;;;;;7.00;6.47;;;8.20;99.90;;;;;;6258114;22;20011;-91
2023/01/11 02:50:10;;;;;;;7.15;6.70;;;8.30;99.90;;;;;;6130675;23;20044;-90
2023/01/11 02:52:54;;;;;;;7.95;6.97;;;8.40;99.90;;;;;;6126881;23;20040;-91
2023/01/11 02:55:25;;;;;;;10.30;7.00;;;8.30;99.90;;;;;;6130396;23;20014;-91
2023/01/11 02:57:55;;;;;;;7.75;6.60;;;8.30;99.90;;;;;;6130510;23;20032;-92
2023/01/11 03:00:24;;;;;;;7.35;6.72;;;8.40;99.90;;;;;;6130663;23;20016;-91
2023/01/11 03:03:05;;;;;;;8.07;7.20;;;8.50;99.90;;;;;;6130349;23;20005;-91
2023/01/11 03:05:43;;;;;;;9.00;7.70;;;8.60;99.90;;;;;;6130551;23;20014;-93
2023/01/11 03:08:39;;;;;;;11.68;8.15;;;8.70;99.90;;;;;;6130719;23;20014;-92
2023/01/11 03:14:11;;;;;;;;;;;8.90;99.90;;;;;;6155787;23;20013;-92
2023/01/11 03:16:53;;;;;;;11.23;9.43;;;8.90;99.90;;;;;;6106303;23;19916;-90
2023/01/11 03:19:37;;;;;;;9.95;9.10;;;9.00;99.90;;;;;;6130743;23;20013;-90
2023/01/11 03:22:16;;;;;;;10.63;9.82;;;8.90;99.90;;;;;;6130869;23;20064;-91
2023/01/11 03:25:00;;;;;;;10.07;9.38;;;8.90;99.90;;;;;;6130935;23;20077;-92
2023/01/11 03:28:11;;;;;;;10.37;9.33;;;8.80;99.90;;;;;;6274993;22;20004;-90
2023/01/11 03:30:58;;;;;;;10.45;9.48;;;8.70;99.90;;;;;;6202007;22;20038;-91
2023/01/11 03:34:06;;;;;;;9.68;8.88;;;8.70;99.90;;;;;;6258251;22;20451;-90
2023/01/11 03:36:53;;;;;;;9.15;8.48;;;8.80;99.90;;;;;;6132271;23;20064;-90
2023/01/11 03:39:28;;;;;;;9.25;8.55;;;8.90;99.90;;;;;;6134344;23;20017;-92
2023/01/11 03:41:59;;;;;;;12.15;8.75;;;9.00;99.90;;;;;;6136299;23;20006;-90
2023/01/11 03:44:30;;;;;;;9.55;8.90;;;9.20;99.90;;;;;;6132134;23;20490;-90
2023/01/11 03:47:10;;;;;;;9.90;9.10;;;9.20;99.90;;;;;;6132750;23;20006;-92
2023/01/11 03:49:48;;;;;;;10.52;9.70;;;9.40;99.90;;;;;;6132322;23;20059;-90
2023/01/11 03:52:20;;;;;;;11.32;9.90;;;9.50;99.90;;;;;;6132107;23;20037;-92
2023/01/11 03:54:47;;;;;;;10.98;10.07;;;9.50;99.90;;;;;;6132224;23;20013;-92
2023/01/11 03:57:23;;;;;;;10.60;9.70;;;9.60;99.90;;;;;;6107525;23;20057;-91
2023/01/11 03:59:50;;;;;;;10.35;9.68;;;9.50;99.90;;;;;;6132304;23;20116;-93
2023/01/11 04:02:27;;;;;;;11.18;10.35;;;9.50;99.90;;;;;;6107357;23;20002;-90
2023/01/11 04:04:53;;;;;;;10.75;9.85;;;9.40;99.90;;;;;;6131958;23;20025;-92
2023/01/11 04:07:20;;;;;;;11.25;10.30;;;9.30;99.90;;;;;;6107894;23;20009;-90
2023/01/11 04:09:47;;;;;;;10.68;9.80;;;9.20;99.90;;;;;;6107498;23;20026;-90
2023/01/11 04:12:13;;;;;;;10.63;9.60;;;9.20;99.90;;;;;;6225251;22;19999;-93
2023/01/11 04:14:40;;;;;;;12.93;9.50;;;9.20;99.90;;;;;;6257818;22;20015;-92
2023/01/11 04:17:07;;;;;;;10.65;9.75;;;9.30;99.90;;;;;;6258307;22;20375;-89
2023/01/11 04:19:33;;;;;;;11.40;9.93;;;9.30;99.90;;;;;;6258177;22;20004;-90
2023/01/11 04:22:00;;;;;;;11.50;9.90;;;9.30;99.90;;;;;;6257893;22;20010;-91
2023/01/11 04:24:27;;;;;;;11.15;9.60;;;9.30;99.90;;;;;;6257792;22;20011;-90
2023/01/11 04:26:53;;;;;;;10.80;9.90;;;9.40;99.90;;;;;;6257775;22;19996;-93
2023/01/11 04:29:26;;;;;;;10.68;9.60;;;9.40;99.90;;;;;;6257657;22;20015;-92
2023/01/11 04:31:53;;;;;;;10.93;9.93;;;9.40;99.90;;;;;;6257878;22;20011;-91
2023/01/11 04:34:20;;;;;;;14.77;9.93;;;9.30;99.90;;;;;;6257866;22;20003;-92
2023/01/11 04:36:46;;;;;;;11.73;9.93;;;9.30;99.90;;;;;;6258025;22;20007;-90
2023/01/11 04:39:13;;;;;;;10.60;9.88;;;9.30;99.90;;;;;;6257261;22;20011;-92
2023/01/11 04:44:25;;;;;;;10.57;9.73;;;9.30;99.90;;;;;;6251727;22;20011;-91
2023/01/11 04:46:54;;;;;;;11.23;10.30;;;9.20;99.90;;;;;;6251396;22;20049;-90
2023/01/11 04:49:21;;;;;;;11.23;10.13;;;9.20;99.90;;;;;;6276809;22;20026;-93
2023/01/11 04:51:47;;;;;;;10.50;9.60;;;9.10;99.90;;;;;;6277150;22;20007;-91
2023/01/11 04:54:17;;;;;;;11.55;10.40;;;9.10;99.90;;;;;;6251345;22;20023;-92
2023/01/11 04:56:44;;;;;;;13.15;10.43;;;9.10;99.90;;;;;;6277206;22;20000;-93
2023/01/11 04:59:10;;;;;;;11.45;10.32;;;9.00;99.90;;;;;;6276870;22;20008;-91
2023/01/11 05:01:37;;;;;;;10.82;10.05;;;9.10;99.90;;;;;;6277052;22;20004;-92
2023/01/11 05:04:03;;;;;;;11.60;10.50;;;9.10;99.90;;;;;;6250774;22;20020;-90
2023/01/11 05:06:30;;;;;;;11.20;10.30;;;9.10;99.90;;;;;;6226335;22;20004;-90
2023/01/11 05:08:57;;;;;;;13.45;10.30;;;9.10;99.90;;;;;;6276473;22;20039;-93
2023/01/11 05:11:24;;;;;;;10.38;9.50;;;9.10;99.90;;;;;;6251389;22;20008;-90
2023/01/11 05:13:51;;;;;;;10.73;9.70;;;9.00;99.90;;;;;;6257261;22;20003;-93
2023/01/11 05:16:18;;;;;;;10.93;10.27;;;9.00;99.90;;;;;;6257225;22;20011;-93
2023/01/11 05:18:47;;;;;;;10.40;9.70;;;9.10;99.90;;;;;;6257473;22;20007;-91
2023/01/11 05:21:19;;;;;;;10.73;9.80;;;9.00;99.90;;;;;;6232588;22;20019;-92
2023/01/11 05:23:47;;;;;;;13.48;9.93;;;9.10;99.90;;;;;;6257166;22;20011;-90
2023/01/11 05:26:16;;;;;;;12.10;10.57;;;9.00;99.90;;;;;;6257056;22;19999;-91
2023/01/11 05:28:44;;;;;;;12.05;10.70;;;9.00;99.90;;;;;;6256997;22;20011;-91
2023/01/11 05:31:11;;;;;;;12.45;11.07;;;8.90;99.90;;;;;;6256915;22;20081;-90
2023/01/11 05:33:38;;;;;;;14.35;10.52;;;8.90;99.90;;;;;;6256945;22;20027;-92
2023/01/11 05:36:07;;;;;;;12.68;10.60;;;8.90;99.90;;;;;;6257078;22;20011;-91
2023/01/11 05:38:34;;;;;;;12.82;10.43;;;8.90;99.90;;;;;;6257232;22;20003;-90
2023/01/11 05:41:03;;;;;;;10.77;9.85;;;8.90;99.90;;;;;;6257686;22;20441;-93
2023/01/11 05:43:31;;;;;;;12.02;9.55;;;8.90;99.90;;;;;;6257158;22;20003;-91
2023/01/11 05:46:00;;;;;;;10.00;9.20;;;8.80;99.90;;;;;;6257025;22;20015;-90
2023/01/11 05:48:26;;;;;;;16.45;9.57;;;8.80;99.90;;;;;;6257122;22;20090;-92
2023/01/11 05:50:56;;;;;;;10.18;9.15;;;8.80;99.90;;;;;;6256884;22;20046;-90
2023/01/11 05:53:23;;;;;;;12.50;9.77;;;8.70;99.90;;;;;;6256810;22;20010;-92
2023/01/11 05:55:59;;;;;;;13.23;9.48;;;8.70;99.90;;;;;;6260573;22;20091;-92
2023/01/11 05:58:28;;;;;;;10.73;9.40;;;8.70;99.90;;;;;;6255191;22;20003;-91
2023/01/11 06:00:56;;;;;;;10.85;9.20;;;8.70;99.90;;;;;;6256676;22;20015;-91
2023/01/11 06:03:24;;;;;;;11.10;10.00;;;8.80;99.90;;;;;;6256299;22;20018;-91
2023/01/11 06:05:53;;;;;;;14.88;10.13;;;8.80;99.90;;;;;;6256965;22;20011;-91
2023/01/11 06:08:20;;;;;;;17.13;10.23;;;8.80;99.90;;;;;;6256848;22;20010;-91
2023/01/11 06:10:52;;;;;;;11.43;10.32;;;8.90;99.90;;;;;;6256832;22;20015;-92
2023/01/11 06:13:25;;;;;;;14.55;11.18;;;8.90;99.90;;;;;;6256960;22;20007;-94
2023/01/11 06:16:08;;;;;;;11.30;10.30;;;8.90;99.90;;;;;;6257206;22;20007;-91
2023/01/11 06:18:37;;;;;;;19.33;10.48;;;8.90;99.90;;;;;;6260016;22;20029;-90
2023/01/11 06:21:05;;;;;;;16.20;9.68;;;8.90;99.90;;;;;;6260826;22;20007;-89
2023/01/11 06:23:34;;;;;;;15.05;10.40;;;9.00;99.90;;;;;;6256508;22;20341;-91
2023/01/11 06:26:21;;;;;;;11.65;10.23;;;9.00;99.90;;;;;;6257966;22;20010;-92
2023/01/11 06:28:49;;;;;;;24.42;15.23;;;9.00;99.90;;;;;;6256282;22;20128;-91
2023/01/11 06:31:15;;;;;;;23.80;11.82;;;9.10;99.90;;;;;;6256690;22;20049;-91
2023/01/11 06:33:42;;;;;;;15.52;11.40;;;9.10;99.90;;;;;;6256563;22;20014;-91
2023/01/11 06:36:11;;;;;;;11.70;10.70;;;9.10;99.90;;;;;;6256512;22;20041;-91
2023/01/11 06:38:39;;;;;;;12.05;10.68;;;9.20;99.90;;;;;;6256437;22;20003;-90
2023/01/11 06:41:08;;;;;;;12.13;10.77;;;9.20;99.90;;;;;;6256579;22;20007;-91
2023/01/11 06:43:36;;;;;;;11.73;10.55;;;9.20;99.90;;;;;;6256131;22;20004;-90
2023/01/11 06:46:03;;;;;;;16.40;11.00;;;9.20;99.90;;;;;;6256489;22;20014;-92
2023/01/11 06:48:31;;;;;;;11.40;10.57;;;9.20;99.90;;;;;;6256148;22;20007;-91
2023/01/11 06:50:58;;;;;;;16.45;10.23;;;9.20;99.90;;;;;;6256256;22;20098;-89
2023/01/11 06:53:26;;;;;;;17.75;11.00;;;9.20;99.90;;;;;;6256390;22;20443;-90
2023/01/11 06:55:54;;;;;;;11.50;10.45;;;9.20;99.90;;;;;;6256270;22;20007;-90
2023/01/11 06:58:25;;;;;;;11.25;10.18;;;9.20;99.90;;;;;;6256201;22;20034;-90
2023/01/11 07:00:53;;;;;;;12.75;10.68;;;9.20;99.90;;;;;;6256227;22;20078;-92
2023/01/11 07:03:22;;;;;;;17.33;10.85;;;9.20;99.90;;;;;;6255482;22;20436;-91
2023/01/11 07:05:49;;;;;;;12.68;10.35;;;9.20;99.90;;;;;;6256215;22;20056;-91
2023/01/11 07:08:15;;;;;;;13.27;10.55;;;9.20;99.90;;;;;;6257382;22;20011;-91
2023/01/11 07:10:42;;;;;;;11.20;9.48;;;9.10;99.90;;;;;;6255995;22;20515;-93
2023/01/11 07:13:10;;;;;;;12.27;8.90;;;9.10;99.90;;;;;;6256354;22;20003;-91
2023/01/11 07:15:37;;;;;;;10.40;9.57;;;9.00;99.90;;;;;;6256646;22;20151;-93
2023/01/11 07:18:04;;;;;;;11.15;9.40;;;9.00;99.90;;;;;;6256835;22;20007;-90
2023/01/11 07:20:31;;;;;;;11.48;9.35;;;9.00;99.90;;;;;;6256912;22;20395;-92
2023/01/11 07:22:59;;;;;;;11.25;9.50;;;9.00;99.90;;;;;;6256373;22;20090;-93
2023/01/11 07:25:29;;;;;;;13.13;10.25;;;9.00;99.90;;;;;;6255941;22;20086;-91
2023/01/11 07:27:58;;;;;;;10.43;9.35;;;9.10;99.90;;;;;;6256145;22;20011;-91
2023/01/11 07:30:27;;;;;;;12.95;9.20;;;9.20;99.90;;;;;;6257070;22;20189;-92
2023/01/11 07:32:56;;;;;;;10.07;8.82;;;9.30;99.90;;;;;;6256002;22;20026;-94
2023/01/11 07:35:23;;;;;;;10.48;9.15;;;9.40;99.90;;;;;;6256076;22;20043;-91
2023/01/11 07:37:50;;;;;;;14.27;9.18;;;9.50;99.90;;;;;;6256248;22;20026;-92
2023/01/11 07:40:17;;;;;;;12.00;8.70;;;9.60;99.90;;;;;;6256243;22;20003;-92
2023/01/11 07:45:39;;;;;;;10.60;9.45;;;10.10;99.90;;;;;;6281701;22;20003;-91
2023/01/11 07:48:08;;;;;;;14.07;10.25;;;10.50;99.90;;;;;;6256190;22;20014;-93
2023/01/11 07:50:37;;;;;;;12.38;11.32;;;10.80;99.90;;;;;;6255804;22;20023;-91
2023/01/11 07:53:04;;;;;;;15.90;11.50;;;10.90;99.90;;;;;;6281601;22;20015;-92
2023/01/11 07:55:30;;;;;;;12.32;11.15;;;10.90;99.90;;;;;;6255951;22;20099;-92
2023/01/11 07:57:58;;;;;;;13.10;11.90;;;10.90;99.90;;;;;;6256131;22;20026;-91
2023/01/11 08:00:25;;;;;;;12.48;11.27;;;10.90;99.90;;;;;;6256287;22;20003;-91
2023/01/11 08:02:52;;;;;;;12.82;11.48;;;10.90;99.90;;;;;;6256049;22;20007;-91
2023/01/11 08:05:19;;;;;;;14.38;11.70;;;11.20;99.90;;;;;;6255632;22;20061;-93
2023/01/11 08:07:46;;;;;;;13.65;12.25;;;11.40;99.90;;;;;;6256139;22;20441;-92
2023/01/11 08:10:13;;;;;;;14.20;12.20;;;11.70;99.90;;;;;;6256224;22;20039;-91
2023/01/11 08:15:35;;;;;;;13.52;12.27;;;11.50;99.90;;;;;;6283214;22;20012;-92
2023/01/11 08:18:04;;;;;;;13.88;12.07;;;11.30;99.90;;;;;;6257700;22;20025;-92
2023/01/11 08:20:32;;;;;;;12.43;11.20;;;11.10;99.90;;;;;;6258095;22;20037;-90
2023/01/11 08:23:06;;;;;;;21.65;10.40;;;10.90;99.90;;;;;;6257763;22;20067;-90
2023/01/11 08:25:33;;;;;;;14.73;10.20;;;10.70;99.90;;;;;;6257559;22;20011;-92
2023/01/11 08:28:01;;;;;;;10.13;9.18;;;10.70;99.90;;;;;;6257589;22;19999;-94
2023/01/11 08:30:29;;;;;;;11.50;10.15;;;10.60;99.90;;;;;;6257308;22;20022;-91
2023/01/11 08:32:56;;;;;;;10.18;9.18;;;10.60;99.90;;;;;;6257536;22;20348;-91
2023/01/11 08:35:24;;;;;;;10.48;8.38;;;10.50;99.90;;;;;;6257813;22;20011;-90
2023/01/11 08:37:51;;;;;;;11.30;9.25;;;10.40;99.90;;;;;;6258029;22;20003;-89
2023/01/11 08:40:18;;;;;;;12.07;8.43;;;10.30;99.90;;;;;;6257277;22;20007;-92
2023/01/11 08:42:45;;;;;;;9.75;8.10;;;10.10;99.90;;;;;;6258480;22;19999;-91
2023/01/11 08:45:12;;;;;;;14.23;8.88;;;10.10;99.90;;;;;;6257297;22;20424;-91
2023/01/11 08:47:38;;;;;;;10.27;8.68;;;10.00;99.90;;;;;;6258647;22;19999;-90
2023/01/11 08:50:07;;;;;;;9.60;8.50;;;10.10;99.90;;;;;;6257734;22;20019;-90
2023/01/11 08:52:34;;;;;;;9.15;8.02;;;10.00;99.90;;;;;;6257044;22;20112;-91
2023/01/11 08:55:00;;;;;;;9.95;7.90;;;10.10;99.90;;;;;;6257278;22;20310;-90
2023/01/11 08:57:46;;;;;;;10.95;8.27;;;10.00;99.90;;;;;;6259672;22;20007;-91
2023/01/11 09:00:13;;;;;;;9.70;8.38;;;10.00;99.90;;;;;;6257662;22;20033;-91
2023/01/11 09:02:39;;;;;;;8.40;7.57;;;9.90;99.90;;;;;;6257559;22;20023;-93
2023/01/11 09:05:06;;;;;;;10.15;7.25;;;9.90;99.90;;;;;;6283246;22;20023;-92
2023/01/11 09:07:33;;;;;;;10.60;7.55;;;9.90;99.90;;;;;;6257346;22;19999;-91
2023/01/11 09:10:00;;;;;;;10.38;7.90;;;9.90;99.90;;;;;;6258671;22;20039;-92
2023/01/11 09:12:27;;;;;;;9.98;8.15;;;9.90;99.90;;;;;;6257390;22;20025;-91
2023/01/11 09:14:54;;;;;;;12.38;8.48;;;9.90;99.90;;;;;;6257502;22;20011;-93
2023/01/11 09:17:20;;;;;;;12.88;8.88;;;9.80;99.90;;;;;;6257763;22;20052;-94
2023/01/11 09:19:47;;;;;;;15.52;9.70;;;9.80;99.90;;;;;;6257783;22;20014;-90
2023/01/11 09:22:14;;;;;;;17.85;9.95;;;9.60;99.90;;;;;;6257638;22;20006;-90
2023/01/11 09:24:41;;;;;;;15.60;9.60;;;9.50;99.90;;;;;;6257186;22;20007;-90
2023/01/11 09:27:10;;;;;;;12.50;9.50;;;9.50;99.90;;;;;;6257711;22;20022;-91
2023/01/11 09:29:37;;;;;;;13.80;10.23;;;9.40;99.90;;;;;;6258008;22;20086;-92
2023/01/11 09:32:04;;;;;;;14.25;8.77;;;9.40;99.90;;;;;;6256968;22;19999;-91
2023/01/11 09:34:32;;;;;;;16.10;9.05;;;9.40;99.90;;;;;;6249155;22;20027;-90
2023/01/11 09:37:01;;;;;;;16.80;10.00;;;9.40;99.90;;;;;;6227830;22;20050;-90
2023/01/11 09:39:28;;;;;;;16.00;9.10;;;9.40;99.90;;;;;;6278137;22;20007;-92
2023/01/11 09:42:32;;;;;;;16.08;9.43;;;9.40;99.90;;;;;;6246862;23;20177;-90
2023/01/11 09:45:21;;;;;;;13.30;8.77;;;9.50;99.90;;;;;;6221100;23;20012;-91
2023/01/11 09:48:27;;;;;;;11.98;9.52;;;9.50;99.90;;;;;;6221253;23;20371;-92
2023/01/11 09:50:57;;;;;;;;;;;9.50;99.90;;;;;;6221809;23;20102;-92
2023/01/11 09:53:35;;;;;;;13.57;9.65;;;9.60;99.90;;;;;;6196276;23;19904;-92
2023/01/11 09:56:10;;;;;;;11.93;9.27;;;9.60;99.90;;;;;;6221828;23;20012;-92
2023/01/11 09:58:41;;;;;;;15.55;9.73;;;9.70;99.90;;;;;;6221439;23;20449;-92
2023/01/11 10:01:41;;;;;;;14.43;8.60;;;9.80;99.90;;;;;;6248090;23;20012;-90
2023/01/11 10:04:34;;;;;;;13.63;9.32;;;9.90;99.90;;;;;;6186097;23;20009;-92
2023/01/11 10:07:14;;;;;;;15.55;9.07;;;9.80;99.90;;;;;;6160827;23;20025;-90
2023/01/11 10:09:56;;;;;;;13.32;9.00;;;9.90;99.90;;;;;;6185236;23;20013;-92
2023/01/11 10:12:44;;;;;;;18.38;10.15;;;9.90;99.90;;;;;;6185145;23;20009;-92
2023/01/11 10:15:26;;;;;;;14.35;8.90;;;9.90;99.90;;;;;;6185081;23;20351;-91
2023/01/11 10:18:08;;;;;;;16.48;8.38;;;10.00;99.90;;;;;;6181649;23;20019;-92
2023/01/11 10:20:42;;;;;;;14.82;9.63;;;10.10;99.90;;;;;;6161032;23;20013;-91
2023/01/11 10:23:27;;;;;;;15.70;9.45;;;10.20;99.90;;;;;;6186541;23;20032;-91
2023/01/11 10:25:58;;;;;;;11.93;10.10;;;10.30;99.90;;;;;;6160559;23;20152;-91
2023/01/11 10:28:45;;;;;;;12.18;8.35;;;10.30;99.90;;;;;;6186688;23;20005;-92
2023/01/11 10:31:28;;;;;;;14.75;10.02;;;10.50;99.90;;;;;;6185025;23;20048;-93
2023/01/11 10:38:02;;;;;;;17.95;8.05;;;10.90;99.90;;;;;;6209777;23;20013;-92
2023/01/11 10:40:30;;;;;;;12.55;9.25;;;11.20;99.90;;;;;;6166966;23;20426;-90
2023/01/11 10:43:07;;;;;;;10.52;8.90;;;11.40;99.90;;;;;;6166085;23;20059;-91
2023/01/11 10:45:51;;;;;;;11.23;9.13;;;11.40;99.90;;;;;;6191030;23;20023;-93
2023/01/11 10:48:32;;;;;;;9.85;8.93;;;11.30;99.90;;;;;;6165987;23;20043;-91
2023/01/11 10:51:30;;;;;;;10.43;8.73;;;11.20;99.90;;;;;;6190318;23;20020;-93
2023/01/11 10:54:15;;;;;;;12.13;8.85;;;11.20;99.90;;;;;;6190584;23;20011;-93
2023/01/11 10:57:14;;;;;;;15.63;9.50;;;11.30;99.90;;;;;;6215341;23;20008;-90
2023/01/11 10:59:51;;;;;;;12.73;11.30;;;11.30;99.90;;;;;;6215280;23;20017;-91
2023/01/11 11:02:39;;;;;;;18.00;13.18;;;11.10;99.90;;;;;;6190800;23;20058;-90
2023/01/11 11:05:14;;;;;;;16.98;11.88;;;11.00;99.90;;;;;;6190747;23;20013;-89
2023/01/11 11:07:56;;;;;;;13.20;11.25;;;10.80;99.90;;;;;;6190438;23;20008;-90
2023/01/11 11:10:33;;;;;;;11.50;10.43;;;10.60;99.90;;;;;;6190040;23;20438;-90
2023/01/11 11:13:09;;;;;;;11.65;10.48;;;10.50;99.90;;;;;;6190551;23;20005;-88
2023/01/11 11:15:52;;;;;;;12.52;11.23;;;10.30;99.90;;;;;;6215599;23;20016;-91
2023/01/11 11:18:18;;;;;;;16.35;13.68;;;10.20;99.90;;;;;;6190760;23;20008;-90
2023/01/11 11:20:45;;;;;;;11.65;10.35;;;10.10;99.90;;;;;;6190829;23;20001;-90
2023/01/11 11:23:20;;;;;;;9.70;8.80;;;10.10;99.90;;;;;;6190715;23;20091;-92
2023/01/11 11:26:06;;;;;;;40.50;23.08;;;10.10;99.90;;;;;;6190451;23;20001;-90
2023/01/11 11:28:33;;;;;;;24.55;14.57;;;10.20;99.90;;;;;;6190601;23;20017;-91
2023/01/11 11:31:06;;;;;;;18.30;12.18;;;10.30;99.90;;;;;;6190457;23;20013;-91
2023/01/11 11:33:39;;;;;;;13.50;9.70;;;10.40;99.90;;;;;;6190499;23;20009;-91
2023/01/11 11:36:09;;;;;;;11.02;9.82;;;10.40;99.90;;;;;;6213934;23;20020;-93
2023/01/11 11:38:39;;;;;;;17.50;13.48;;;10.50;99.90;;;;;;6215603;23;20035;-91
2023/01/11 11:41:16;;;;;;;22.23;15.73;;;10.70;99.90;;;;;;6215550;23;20009;-92
2023/01/11 11:43:47;;;;;;;18.98;14.63;;;10.60;99.90;;;;;;6215561;23;20012;-91
2023/01/11 11:46:14;;;;;;;17.70;13.25;;;10.60;99.90;;;;;;6215879;23;20335;-92
2023/01/11 11:48:42;;;;;;;16.05;13.88;;;10.60;99.90;;;;;;6216101;23;20095;-91
2023/01/11 11:51:20;;;;;;;12.45;11.20;;;10.80;99.90;;;;;;6218358;23;20014;-90
2023/01/11 12:00:18;;;;;;;14.65;10.63;;;11.10;99.90;;;;;;6236991;22;20057;-92
2023/01/11 12:18:25;;;;;;;12.43;11.25;;;11.20;99.90;;;;;;6285396;22;20027;-94
2023/01/11 12:20:54;;;;;;;21.30;14.35;;;11.30;99.90;;;;;;6284339;22;20039;-94
2023/01/11 12:23:24;;;;;;;17.27;12.27;;;11.30;99.90;;;;;;6257710;22;20003;-93
2023/01/11 12:26:21;;;;;;;31.20;20.95;;;11.50;99.90;;;;;;6247000;23;20014;-91
2023/01/11 12:29:06;;;;;;;12.65;11.25;;;11.70;99.90;;;;;;6161582;23;20511;-93
2023/01/11 12:31:48;;;;;;;14.05;12.65;;;11.80;99.90;;;;;;6162047;23;20439;-93
2023/01/11 12:34:21;;;;;;;17.58;13.52;;;11.60;99.90;;;;;;6165728;23;20005;-91
2023/01/11 12:37:04;;;;;;;15.60;14.07;;;11.50;99.90;;;;;;6165604;23;20013;-92
2023/01/11 12:39:38;;;;;;;13.43;11.70;;;11.30;99.90;;;;;;6162166;23;20040;-92
2023/01/11 12:42:19;;;;;;;12.98;10.77;;;11.20;99.90;;;;;;6161883;23;20045;-93
2023/01/11 12:44:58;;;;;;;12.35;11.27;;;11.20;99.90;;;;;;6161388;23;20009;-90
2023/01/11 12:48:09;;;;;;;11.57;10.57;;;11.20;99.90;;;;;;6161024;23;20009;-91
2023/01/11 12:50:51;;;;;;;12.93;11.75;;;11.20;99.90;;;;;;6136618;23;20021;-93
2023/01/11 12:53:33;;;;;;;16.95;14.50;;;11.30;99.90;;;;;;6161925;23;20005;-93
2023/01/11 12:56:47;;;;;;;16.83;14.95;;;11.30;99.90;;;;;;6172331;23;20012;-92
2023/01/11 15:18:42;;;;;;;14.00;12.70;;;9.70;99.90;;;;;;6293359;22;20023;-93
2023/01/11 15:21:17;;;;;;;15.45;13.88;;;9.70;99.90;;;;;;6282307;22;20441;-92
2023/01/11 15:23:55;;;;;;;15.60;14.10;;;9.60;99.90;;;;;;6282783;22;20060;-93
2023/01/11 15:26:25;;;;;;;21.20;16.70;;;9.60;99.90;;;;;;6259928;22;20011;-93
2023/01/11 15:28:56;;;;;;;15.00;13.32;;;9.50;99.90;;;;;;6259054;22;20056;-92
2023/01/11 15:31:31;;;;;;;13.52;12.30;;;9.50;99.90;;;;;;6258549;22;20007;-91
2023/01/11 15:34:18;;;;;;;14.10;12.75;;;9.40;99.90;;;;;;6258505;22;20029;-93
2023/01/11 15:37:02;;;;;;;13.40;12.02;;;9.40;99.90;;;;;;6258360;22;20007;-91
2023/01/11 15:40:01;;;;;;;13.30;11.50;;;9.40;99.90;;;;;;6258928;22;20004;-92
2023/01/11 15:42:56;;;;;;;14.57;13.05;;;9.40;99.90;;;;;;6258531;22;20007;-92
2023/01/11 15:49:13;;;;;;;12.68;11.48;;;9.40;99.90;;;;;;6284641;22;20461;-91
2023/01/11 15:52:22;;;;;;;13.90;12.30;;;9.40;99.90;;;;;;6258177;22;20034;-93
2023/01/11 15:55:20;;;;;;;15.10;11.93;;;9.40;99.90;;;;;;6226624;22;20003;-91
2023/01/11 15:58:01;;;;;;;16.27;11.55;;;9.40;99.90;;;;;;6257861;22;20379;-91
2023/01/11 16:00:58;;;;;;;17.55;13.55;;;9.40;99.90;;;;;;6259036;22;20039;-93
2023/01/11 16:04:13;;;;;;;17.90;15.38;;;9.30;99.90;;;;;;6258061;22;20003;-94
2023/01/11 16:06:49;;;;;;;17.83;14.77;;;9.30;99.90;;;;;;6258706;22;20003;-91
2023/01/11 16:14:03;;;;;;;;;;;;;;;;;;;;;
2023/01/11 16:16:42;;;;;;;18.05;14.45;;;9.30;99.90;;;;;;6283155;22;20336;-93
2023/01/11 16:25:41;;;;;;;20.38;14.63;;;9.20;99.90;;;;;;6305988;22;20034;-92
2023/01/11 16:28:43;;;;;;;;;;;;;;;;;;;;;
2023/01/11 16:32:01;;;;;;;24.92;18.20;;;9.20;99.90;;;;;;6286268;22;20042;-92
2023/01/11 16:42:02;;;;;;;18.30;12.18;;;9.30;99.90;;;;;;6318722;22;20145;-90
2023/01/11 16:45:06;;;;;;;;;;;;;;;;;;;;;
2023/01/11 16:50:36;;;;;;;27.48;18.30;;;9.30;99.90;;;;;;6259418;22;20078;-93
2023/01/11 16:54:01;;;;;;;24.67;18.77;;;9.30;99.90;;;;;;6228890;22;20010;-94
2023/01/11 17:25:56;;;;;;;;;;;;;;;;;;;;;